Time;durP1;ratioP1;P1;durP2;ratioP2;P2;SDS_P1;SDS_P2;PMS_P1;PMS_P2;Temp;Humidity;BMP_temperature;BMP_pressure;BME280_temperature;BME280_humidity;BME280_pressure;Samples;Min_cycle;Max_cycle;Signal;HPM_P1;HPM_P2
2023/09/04 00:00:36;;;;;;;6.65;5.63;;;;;;;19.52;67.91;101631.97;4181771;28;20040;-73
2023/09/04 00:02:38;;;;;;;;;;;;;;;19.40;68.03;101639.03;4182061;28;20076;-73
2023/09/04 00:04:42;;;;;;;6.40;5.13;;;;;;;19.42;67.82;101630.25;4180463;28;20447;-73
2023/09/04 00:06:45;;;;;;;8.75;5.78;;;;;;;19.44;67.72;101631.09;4181358;28;20128;-73
2023/09/04 00:08:47;;;;;;;7.82;5.60;;;;;;;19.44;67.96;101623.19;4181189;28;20146;-73
2023/09/04 00:10:50;;;;;;;8.15;5.38;;;;;;;19.46;68.02;101623.19;4163887;28;20568;-73
2023/09/04 00:12:52;;;;;;;7.18;4.95;;;;;;;19.44;67.71;101624.97;4181506;28;20045;-73
2023/09/04 00:14:55;;;;;;;8.60;5.25;;;;;;;19.45;68.24;101624.94;4163793;28;20061;-73
2023/09/04 00:16:59;;;;;;;8.13;5.15;;;;;;;19.43;68.44;101625.84;4163576;28;20041;-73
2023/09/04 00:19:02;;;;;;;14.45;5.72;;;;;;;19.41;69.03;101620.56;4180250;28;20048;-73
2023/09/04 00:21:05;;;;;;;9.75;5.55;;;;;;;19.38;69.10;101623.22;4180140;28;20051;-74
2023/09/04 00:23:08;;;;;;;7.47;5.10;;;;;;;19.32;69.19;101624.13;4174853;28;20133;-74
2023/09/04 00:25:11;;;;;;;8.70;5.45;;;;;;;19.30;68.59;101622.34;4176651;28;20451;-73
2023/09/04 00:27:13;;;;;;;8.00;5.38;;;;;;;19.30;68.66;101622.34;4173596;28;20041;-73
2023/09/04 00:29:16;;;;;;;8.23;5.75;;;;;;;19.28;68.63;101618.88;4159934;28;20041;-74
2023/09/04 00:31:18;;;;;;;9.02;5.03;;;;;;;19.25;68.47;101624.16;4146143;28;20038;-74
2023/09/04 00:33:23;;;;;;;11.95;5.95;;;;;;;19.23;68.67;101625.91;4161285;28;20120;-74
2023/09/04 00:35:25;;;;;;;7.03;5.20;;;;;;;19.19;68.95;101628.53;4181376;28;20051;-74
2023/09/04 00:37:28;;;;;;;8.00;5.63;;;;;;;19.17;68.45;101625.03;4163241;28;20084;-74
2023/09/04 00:39:31;;;;;;;7.32;4.72;;;;;;;19.18;68.79;101629.41;4146983;28;20045;-74
2023/09/04 00:41:34;;;;;;;11.20;5.80;;;;;;;19.18;69.10;101626.78;4179879;28;20068;-74
2023/09/04 00:43:37;;;;;;;7.30;5.00;;;;;;;19.16;69.27;101625.06;4180949;28;20088;-74
2023/09/04 00:45:43;;;;;;;6.75;5.40;;;;;;;19.12;69.11;101631.22;4181040;28;20472;-74
2023/09/04 00:47:47;;;;;;;8.10;5.53;;;;;;;19.08;69.23;101616.28;4163018;28;20516;-74
2023/09/04 00:49:52;;;;;;;7.57;5.40;;;;;;;19.04;69.14;101627.69;4163271;28;20045;-74
2023/09/04 00:51:56;;;;;;;6.20;4.90;;;;;;;19.01;69.31;101625.94;4163524;28;20037;-74
2023/09/04 00:53:59;;;;;;;7.57;5.32;;;;;;;18.97;69.18;101629.50;4163055;28;20058;-74
2023/09/04 00:56:03;;;;;;;11.27;5.00;;;;;;;18.95;69.61;101626.88;4180831;28;20055;-74
2023/09/04 00:58:06;;;;;;;9.05;5.20;;;;;;;18.95;69.73;101628.59;4180355;28;20076;-73
2023/09/04 01:00:12;;;;;;;10.27;5.18;;;;;;;18.94;69.84;101630.38;4180772;28;20129;-74
2023/09/04 01:02:15;;;;;;;7.38;4.60;;;;;;;18.93;70.53;101631.22;4163201;28;20445;-73
2023/09/04 01:04:20;;;;;;;10.90;5.38;;;;;;;18.94;70.41;101634.75;4180673;28;20037;-74
2023/09/04 01:06:24;;;;;;;7.15;4.90;;;;;;;18.91;70.74;101629.47;4163110;28;20041;-74
2023/09/04 01:08:27;;;;;;;9.52;5.70;;;;;;;18.89;70.56;101625.97;4146446;28;20049;-74
2023/09/04 01:10:35;;;;;;;6.60;4.87;;;;;;;18.87;70.78;101619.84;4179548;28;20095;-74
2023/09/04 01:12:42;;;;;;;11.20;5.53;;;;;;;18.86;70.64;101621.59;4163088;28;20037;-74
2023/09/04 01:14:49;;;;;;;8.57;5.35;;;;;;;18.84;70.40;101613.66;4146393;28;20100;-74
2023/09/04 01:16:54;;;;;;;9.05;5.55;;;;;;;18.83;70.03;101619.78;4180422;28;20552;-74
2023/09/04 01:18:57;;;;;;;6.30;5.07;;;;;;;18.75;70.32;101618.03;4162864;28;20124;-74
2023/09/04 01:21:02;;;;;;;8.00;5.07;;;;;;;18.74;70.07;101619.81;4162375;28;20049;-73
2023/09/04 01:23:09;;;;;;;7.15;5.43;;;;;;;18.75;69.95;101615.41;4146726;28;20132;-74
2023/09/04 01:25:12;;;;;;;10.80;6.22;;;;;;;18.77;69.18;101618.94;4180491;28;20052;-74
2023/09/04 01:27:24;;;;;;;8.02;4.82;;;;;;;18.77;69.28;101621.56;4159518;28;20073;-73
2023/09/04 01:29:37;;;;;;;9.27;5.63;;;;;;;18.76;69.72;101620.72;4159548;28;20448;-74
2023/09/04 01:31:47;;;;;;;8.32;4.95;;;;;;;18.77;69.02;101608.41;4174375;28;20513;-74
2023/09/04 01:33:52;;;;;;;7.20;5.03;;;;;;;18.77;69.40;101606.63;4154538;28;20088;-73
2023/09/04 01:35:57;;;;;;;6.53;4.65;;;;;;;18.77;69.39;101604.00;4158129;28;20037;-74
2023/09/04 01:38:02;;;;;;;6.25;5.22;;;;;;;18.77;69.10;101611.03;4147510;28;20050;-74
2023/09/04 01:40:07;;;;;;;6.85;4.88;;;;;;;18.72;69.16;101610.16;4161722;28;20044;-73
2023/09/04 01:42:10;;;;;;;6.78;4.55;;;;;;;18.71;69.41;101604.00;4135924;28;20567;-74
2023/09/04 01:44:14;;;;;;;10.05;5.75;;;;;;;18.71;69.13;101611.06;4172257;28;20033;-73
2023/09/04 01:46:17;;;;;;;8.80;6.10;;;;;;;18.67;69.29;101612.78;4160735;28;20601;-74
2023/09/04 01:48:19;;;;;;;7.78;5.70;;;;;;;18.64;69.31;101610.16;4149825;28;20532;-73
2023/09/04 01:50:22;;;;;;;7.13;6.00;;;;;;;18.62;69.44;101618.06;4153820;28;20041;-74
2023/09/04 01:52:24;;;;;;;7.15;5.45;;;;;;;18.61;69.81;101616.31;4154980;28;20044;-74
2023/09/04 01:54:29;;;;;;;8.38;6.38;;;;;;;18.59;69.17;101617.22;4154147;28;20050;-73
2023/09/04 01:56:32;;;;;;;7.78;5.93;;;;;;;18.59;69.75;101618.06;4160265;28;20041;-74
2023/09/04 01:58:35;;;;;;;7.80;5.45;;;;;;;18.58;69.86;101625.97;4158159;28;20073;-74
2023/09/04 02:00:38;;;;;;;9.18;5.93;;;;;;;18.54;70.36;101622.44;4158312;28;20489;-74
2023/09/04 02:02:41;;;;;;;6.97;4.97;;;;;;;18.55;70.55;101625.97;4157947;28;20152;-74
2023/09/04 02:04:44;;;;;;;12.35;6.50;;;;;;;18.55;70.45;101631.25;4154086;28;20046;-74
2023/09/04 02:06:47;;;;;;;8.57;5.75;;;;;;;18.51;70.44;101630.34;4178195;28;20037;-73
2023/09/04 02:08:50;;;;;;;9.90;6.22;;;;;;;18.51;70.34;101629.50;4137840;28;20133;-73
2023/09/04 02:10:56;;;;;;;9.40;5.78;;;;;;;18.40;70.31;101630.38;4160812;28;20065;-73
2023/09/04 02:12:58;;;;;;;8.32;5.50;;;;;;;18.34;70.38;101619.84;4153251;28;20059;-74
2023/09/04 02:15:06;;;;;;;7.18;5.50;;;;;;;18.31;70.69;101618.06;4156304;28;20041;-74
2023/09/04 02:17:09;;;;;;;9.13;5.85;;;;;;;18.28;70.71;101628.59;4157542;28;21876;-73
2023/09/04 02:19:12;;;;;;;7.70;5.57;;;;;;;18.28;70.78;101617.19;4156359;28;20046;-74
2023/09/04 02:21:15;;;;;;;9.38;5.95;;;;;;;18.27;70.46;101618.94;4160094;28;20052;-73
2023/09/04 02:23:18;;;;;;;7.78;5.80;;;;;;;18.25;70.53;101614.53;4145174;28;20096;-74
2023/09/04 02:25:20;;;;;;;10.48;5.88;;;;;;;18.20;70.29;101608.41;4171825;28;20515;-73
2023/09/04 02:27:24;;;;;;;9.45;5.90;;;;;;;18.18;70.15;101604.88;4160952;28;20048;-73
2023/09/04 02:29:29;;;;;;;10.52;5.75;;;;;;;18.16;70.14;101601.38;4161373;28;20050;-73
2023/09/04 02:31:32;;;;;;;8.18;6.38;;;;;;;18.10;70.46;101602.25;4152957;28;20037;-73
2023/09/04 02:33:35;;;;;;;11.63;6.68;;;;;;;18.10;70.75;101597.84;4158717;28;20080;-73
2023/09/04 02:35:38;;;;;;;7.65;5.85;;;;;;;18.10;70.10;101603.13;4164509;28;20053;-73
2023/09/04 02:37:41;;;;;;;8.38;6.18;;;;;;;18.06;70.36;101606.66;4160398;28;20480;-73
2023/09/04 02:39:44;;;;;;;7.95;5.43;;;;;;;18.03;70.58;101601.34;4161034;28;20065;-73
2023/09/04 02:41:47;;;;;;;8.95;5.22;;;;;;;18.02;71.00;101604.88;4156931;28;20038;-73
2023/09/04 02:43:51;;;;;;;9.15;5.30;;;;;;;18.02;70.69;101599.63;4163057;28;20042;-73
2023/09/04 02:45:57;;;;;;;8.85;6.47;;;;;;;17.99;71.25;101599.63;4148751;28;20417;-73
2023/09/04 02:48:00;;;;;;;8.48;6.20;;;;;;;17.99;71.43;101594.34;4165178;28;20084;-73
2023/09/04 02:50:02;;;;;;;9.13;5.60;;;;;;;17.99;71.32;101591.72;4181732;28;20037;-73
2023/09/04 02:52:05;;;;;;;9.43;5.18;;;;;;;18.01;71.44;101597.84;4166357;28;20099;-73
2023/09/04 02:54:08;;;;;;;7.68;5.10;;;;;;;18.02;71.28;101594.34;4165042;28;20135;-73
2023/09/04 02:56:11;;;;;;;7.88;5.75;;;;;;;18.00;71.53;101596.09;4164926;28;20064;-73
2023/09/04 02:58:14;;;;;;;9.60;6.05;;;;;;;18.00;72.09;101597.84;4164829;28;20440;-73
2023/09/04 03:00:19;;;;;;;9.50;5.07;;;;;;;18.01;71.78;101596.97;4165028;28;20041;-73
2023/09/04 03:02:22;;;;;;;;;;;;;;;17.90;72.39;101600.47;4165339;28;20045;-73
2023/09/04 03:04:26;;;;;;;10.02;5.97;;;;;;;17.95;72.47;101592.59;4182663;28;20288;-73
2023/09/04 03:06:29;;;;;;;7.22;5.90;;;;;;;17.98;72.03;101591.72;4148443;28;20073;-74
2023/09/04 03:08:32;;;;;;;9.55;6.50;;;;;;;18.01;71.48;101600.47;4148339;28;20092;-74
2023/09/04 03:10:35;;;;;;;12.02;6.70;;;;;;;17.99;71.98;101594.34;4164936;28;20041;-74
2023/09/04 03:12:38;;;;;;;10.32;7.00;;;;;;;17.99;72.15;101602.25;4182457;28;20381;-74
2023/09/04 03:14:40;;;;;;;9.00;6.28;;;;;;;17.99;71.50;101596.09;4182341;28;20067;-74
2023/09/04 03:16:45;;;;;;;10.43;6.80;;;;;;;17.98;71.45;101595.22;4148433;28;20046;-73
2023/09/04 03:18:48;;;;;;;8.90;7.07;;;;;;;17.94;72.01;101598.72;4148210;28;20046;-74
2023/09/04 03:20:50;;;;;;;11.10;7.88;;;;;;;17.95;71.06;101598.72;4164790;28;20044;-74
2023/09/04 03:22:53;;;;;;;8.68;6.97;;;;;;;17.93;71.59;101599.59;4164759;28;20057;-73
2023/09/04 03:24:56;;;;;;;12.20;6.60;;;;;;;17.92;71.30;101601.34;4164823;28;20083;-73
2023/09/04 03:27:02;;;;;;;10.15;6.32;;;;;;;17.89;71.25;101603.94;4164580;28;20046;-74
2023/09/04 03:29:05;;;;;;;9.15;7.13;;;;;;;17.89;71.39;101610.97;4164555;28;20048;-74
2023/09/04 03:31:13;;;;;;;8.63;6.07;;;;;;;17.88;71.39;101602.16;4164652;28;20114;-74
2023/09/04 03:33:17;;;;;;;9.88;6.90;;;;;;;17.89;71.45;101605.69;4164532;28;20045;-73
2023/09/04 03:35:20;;;;;;;10.88;7.70;;;;;;;17.90;71.37;101608.38;4182242;28;20131;-73
2023/09/04 03:37:23;;;;;;;10.73;7.90;;;;;;;17.88;71.40;101614.47;4181766;28;20041;-74
2023/09/04 03:39:26;;;;;;;8.70;6.45;;;;;;;17.87;71.34;101608.34;4182117;28;20049;-74
2023/09/04 03:41:30;;;;;;;11.40;6.97;;;;;;;17.83;71.50;101616.19;4164330;28;20076;-74
2023/09/04 03:43:35;;;;;;;9.85;7.50;;;;;;;17.81;71.38;101605.66;4157060;28;20519;-73
2023/09/04 03:45:38;;;;;;;10.82;7.13;;;;;;;17.79;71.58;101618.81;4161094;28;20497;-74
2023/09/04 03:47:41;;;;;;;9.50;7.43;;;;;;;17.78;71.94;101614.44;4162015;28;20065;-74
2023/09/04 03:49:46;;;;;;;9.45;6.78;;;;;;;17.80;71.93;101614.44;4178729;28;20132;-73
2023/09/04 03:51:49;;;;;;;9.52;7.05;;;;;;;17.77;71.70;101614.41;4180071;28;20033;-73
2023/09/04 03:53:51;;;;;;;8.73;6.90;;;;;;;17.71;71.79;101615.31;4161420;28;20133;-74
2023/09/04 03:55:54;;;;;;;9.40;6.72;;;;;;;17.70;71.87;101610.03;4175898;28;20123;-73
2023/09/04 03:57:58;;;;;;;8.50;6.18;;;;;;;17.70;71.93;101613.53;4157201;28;20041;-75
2023/09/04 04:00:00;;;;;;;8.50;6.40;;;;;;;17.67;72.43;101615.25;4157633;28;20489;-74
2023/09/04 04:02:03;;;;;;;7.93;6.45;;;;;;;17.65;72.42;101609.13;4177301;28;20044;-74
2023/09/04 04:04:06;;;;;;;8.60;6.68;;;;;;;17.66;72.54;101603.88;4163783;28;20475;-74
2023/09/04 04:06:13;;;;;;;13.13;6.65;;;;;;;17.63;72.39;101598.59;4180035;28;20064;-74
2023/09/04 04:08:16;;;;;;;8.82;6.38;;;;;;;17.58;72.23;101602.94;4155400;28;20103;-74
2023/09/04 04:10:20;;;;;;;10.57;7.43;;;;;;;17.55;72.35;101605.56;4181427;28;20049;-74
2023/09/04 04:12:24;;;;;;;8.20;6.13;;;;;;;17.53;72.61;101599.44;4181678;28;20275;-74
